X  Chiuso Dati meteorologici dell'aviazione (METAR)        LDPL Pula
Temperatura
35°C Temperatura
18°C Punto di rugiada
37% Umidità



Vento
9 KM/O
6 MPH
3 M/S
5 KTS



-1°
VRB
Condizioni attuali

Mostly Sunny Per lo piu' sereno
Pressione 1013 (hPa) - 29.93 (inHg)
Visibilità 6 (miglio) - 10 (km)
Aeroporto
Codice-Aeroporto LDPL

Posizione: Pula
Distanza: 39 (km)

Metar:
METAR LDPL 171100Z VRB05KT 9999 FEW058 35/18 Q1014 BECMG 27010KT

Ore: 17-07-2024 13:00 CEST